sensor_id;sensor_type;location;lat;lon;timestamp;pressure;altitude;pressure_sealevel;temperature;humidity
41467;BME280;27205;53.690;19.948;2023-01-28T00:02:53;100896.41;;;-0.12;92.80
41467;BME280;27205;53.690;19.948;2023-01-28T00:07:56;100891.89;;;-0.17;92.59
41467;BME280;27205;53.690;19.948;2023-01-28T00:13:00;100891.02;;;-0.20;92.46
41467;BME280;27205;53.690;19.948;2023-01-28T00:18:04;100885.73;;;-0.22;92.37
41467;BME280;27205;53.690;19.948;2023-01-28T00:23:07;100886.35;;;-0.23;92.33
41467;BME280;27205;53.690;19.948;2023-01-28T00:28:11;100883.85;;;-0.16;92.53
41467;BME280;27205;53.690;19.948;2023-01-28T00:33:15;100884.86;;;-0.15;91.96
41467;BME280;27205;53.690;19.948;2023-01-28T00:38:18;100884.55;;;-0.15;92.19
41467;BME280;27205;53.690;19.948;2023-01-28T00:43:22;100887.41;;;-0.16;92.00
41467;BME280;27205;53.690;19.948;2023-01-28T00:48:25;100885.52;;;-0.18;92.02
41467;BME280;27205;53.690;19.948;2023-01-28T00:53:30;100889.73;;;-0.25;92.00
41467;BME280;27205;53.690;19.948;2023-01-28T00:58:34;100889.52;;;-0.30;92.09
41467;BME280;27205;53.690;19.948;2023-01-28T01:03:37;100888.21;;;-0.31;92.19
41467;BME280;27205;53.690;19.948;2023-01-28T01:08:41;100884.17;;;-0.34;92.03
41467;BME280;27205;53.690;19.948;2023-01-28T01:13:54;100880.62;;;-0.42;91.73
41467;BME280;27205;53.690;19.948;2023-01-28T01:18:58;100875.39;;;-0.48;92.10
41467;BME280;27205;53.690;19.948;2023-01-28T01:24:02;100881.38;;;-0.52;92.15
41467;BME280;27205;53.690;19.948;2023-01-28T01:29:06;100884.40;;;-0.52;92.38
41467;BME280;27205;53.690;19.948;2023-01-28T01:34:12;100881.83;;;-0.53;91.86
41467;BME280;27205;53.690;19.948;2023-01-28T01:39:16;100882.95;;;-0.52;92.71
41467;BME280;27205;53.690;19.948;2023-01-28T01:49:55;100872.31;;;-0.45;92.11
41467;BME280;27205;53.690;19.948;2023-01-28T01:54:59;100863.80;;;-0.47;91.96
41467;BME280;27205;53.690;19.948;2023-01-28T02:00:06;100860.86;;;-0.40;92.34
41467;BME280;27205;53.690;19.948;2023-01-28T02:05:13;100858.41;;;-0.35;92.50
41467;BME280;27205;53.690;19.948;2023-01-28T02:10:18;100862.04;;;-0.35;92.28
41467;BME280;27205;53.690;19.948;2023-01-28T02:15:23;100856.44;;;-0.39;92.19
41467;BME280;27205;53.690;19.948;2023-01-28T02:20:51;100860.92;;;-0.40;92.57
41467;BME280;27205;53.690;19.948;2023-01-28T02:31:51;100866.44;;;-0.38;92.16
41467;BME280;27205;53.690;19.948;2023-01-28T02:37:03;100859.13;;;-0.32;91.91
41467;BME280;27205;53.690;19.948;2023-01-28T02:42:32;100852.21;;;-0.27;92.36
41467;BME280;27205;53.690;19.948;2023-01-28T02:47:37;100856.58;;;-0.24;92.28
41467;BME280;27205;53.690;19.948;2023-01-28T03:09:02;100855.86;;;-0.26;91.71
41467;BME280;27205;53.690;19.948;2023-01-28T03:14:27;100850.23;;;-0.25;92.13
41467;BME280;27205;53.690;19.948;2023-01-28T03:19:51;100848.03;;;-0.27;91.98
41467;BME280;27205;53.690;19.948;2023-01-28T03:25:14;100849.69;;;-0.24;92.22
41467;BME280;27205;53.690;19.948;2023-01-28T03:30:43;100847.84;;;-0.24;92.03
41467;BME280;27205;53.690;19.948;2023-01-28T03:36:07;100845.13;;;-0.23;92.00
41467;BME280;27205;53.690;19.948;2023-01-28T03:41:29;100844.65;;;-0.25;91.66
41467;BME280;27205;53.690;19.948;2023-01-28T03:46:33;100849.84;;;-0.25;91.78
41467;BME280;27205;53.690;19.948;2023-01-28T03:51:40;100854.93;;;-0.25;91.98
41467;BME280;27205;53.690;19.948;2023-01-28T03:56:43;100851.45;;;-0.26;92.27
41467;BME280;27205;53.690;19.948;2023-01-28T04:01:47;100849.63;;;-0.22;92.50
41467;BME280;27205;53.690;19.948;2023-01-28T04:06:53;100856.15;;;-0.16;92.70
41467;BME280;27205;53.690;19.948;2023-01-28T04:11:57;100853.98;;;-0.19;92.03
41467;BME280;27205;53.690;19.948;2023-01-28T04:17:01;100844.48;;;-0.18;92.10
41467;BME280;27205;53.690;19.948;2023-01-28T04:22:06;100842.38;;;-0.19;92.07
41467;BME280;27205;53.690;19.948;2023-01-28T04:27:12;100841.02;;;-0.21;91.73
41467;BME280;27205;53.690;19.948;2023-01-28T04:32:15;100844.06;;;-0.19;92.23
41467;BME280;27205;53.690;19.948;2023-01-28T04:37:19;100844.75;;;-0.22;92.08
41467;BME280;27205;53.690;19.948;2023-01-28T04:42:22;100846.02;;;-0.18;92.22
41467;BME280;27205;53.690;19.948;2023-01-28T04:47:26;100851.06;;;-0.14;92.35
41467;BME280;27205;53.690;19.948;2023-01-28T04:52:29;100863.30;;;-0.12;92.09
41467;BME280;27205;53.690;19.948;2023-01-28T04:57:33;100859.50;;;-0.14;91.88
41467;BME280;27205;53.690;19.948;2023-01-28T05:02:36;100863.23;;;-0.13;91.92
41467;BME280;27205;53.690;19.948;2023-01-28T05:07:40;100869.59;;;-0.10;92.40
41467;BME280;27205;53.690;19.948;2023-01-28T05:12:44;100875.23;;;-0.10;92.29
41467;BME280;27205;53.690;19.948;2023-01-28T05:17:47;100871.79;;;-0.16;92.22
41467;BME280;27205;53.690;19.948;2023-01-28T05:22:51;100875.70;;;-0.22;92.36
41467;BME280;27205;53.690;19.948;2023-01-28T05:27:55;100879.98;;;-0.27;91.54
41467;BME280;27205;53.690;19.948;2023-01-28T05:32:58;100879.77;;;-0.33;91.87
41467;BME280;27205;53.690;19.948;2023-01-28T05:38:02;100879.89;;;-0.36;92.10
41467;BME280;27205;53.690;19.948;2023-01-28T05:43:06;100879.67;;;-0.35;91.91
41467;BME280;27205;53.690;19.948;2023-01-28T05:48:09;100885.02;;;-0.34;91.67
41467;BME280;27205;53.690;19.948;2023-01-28T05:53:13;100892.16;;;-0.39;91.41
41467;BME280;27205;53.690;19.948;2023-01-28T05:58:16;100883.30;;;-0.45;91.92
41467;BME280;27205;53.690;19.948;2023-01-28T06:03:20;100886.55;;;-0.44;92.23
41467;BME280;27205;53.690;19.948;2023-01-28T06:08:23;100889.67;;;-0.42;92.00
41467;BME280;27205;53.690;19.948;2023-01-28T06:13:27;100902.13;;;-0.41;92.01
41467;BME280;27205;53.690;19.948;2023-01-28T06:18:31;100905.12;;;-0.43;91.79
41467;BME280;27205;53.690;19.948;2023-01-28T06:23:34;100900.31;;;-0.45;92.11
41467;BME280;27205;53.690;19.948;2023-01-28T06:28:38;100906.05;;;-0.44;92.11
41467;BME280;27205;53.690;19.948;2023-01-28T06:33:41;100904.01;;;-0.38;92.06
41467;BME280;27205;53.690;19.948;2023-01-28T06:38:45;100902.39;;;-0.30;91.83
41467;BME280;27205;53.690;19.948;2023-01-28T06:43:49;100905.05;;;-0.25;92.24
41467;BME280;27205;53.690;19.948;2023-01-28T06:48:52;100913.41;;;-0.25;91.57
41467;BME280;27205;53.690;19.948;2023-01-28T06:53:56;100910.00;;;-0.25;91.62
41467;BME280;27205;53.690;19.948;2023-01-28T06:58:59;100912.41;;;-0.24;91.02
41467;BME280;27205;53.690;19.948;2023-01-28T07:04:03;100913.17;;;-0.26;91.28
41467;BME280;27205;53.690;19.948;2023-01-28T07:09:07;100915.92;;;-0.20;91.68
41467;BME280;27205;53.690;19.948;2023-01-28T07:14:10;100916.58;;;-0.14;91.38
41467;BME280;27205;53.690;19.948;2023-01-28T07:19:14;100916.00;;;-0.10;91.44
41467;BME280;27205;53.690;19.948;2023-01-28T07:24:17;100919.55;;;-0.01;91.63
41467;BME280;27205;53.690;19.948;2023-01-28T07:29:21;100925.39;;;0.13;91.81
41467;BME280;27205;53.690;19.948;2023-01-28T07:34:25;100929.05;;;0.29;91.84
41467;BME280;27205;53.690;19.948;2023-01-28T07:39:29;100934.06;;;0.37;91.78
41467;BME280;27205;53.690;19.948;2023-01-28T07:44:33;100938.30;;;0.44;91.20
41467;BME280;27205;53.690;19.948;2023-01-28T07:49:37;100940.19;;;0.52;90.96
41467;BME280;27205;53.690;19.948;2023-01-28T07:54:44;100932.91;;;0.62;91.17
41467;BME280;27205;53.690;19.948;2023-01-28T07:59:49;100936.31;;;0.62;90.61
41467;BME280;27205;53.690;19.948;2023-01-28T08:04:55;100942.17;;;0.73;90.79
41467;BME280;27205;53.690;19.948;2023-01-28T08:10:01;100931.46;;;0.85;90.64
41467;BME280;27205;53.690;19.948;2023-01-28T08:15:06;100932.95;;;0.86;90.43
41467;BME280;27205;53.690;19.948;2023-01-28T08:20:10;100931.51;;;0.91;90.00
41467;BME280;27205;53.690;19.948;2023-01-28T08:25:14;100942.74;;;0.95;90.22
41467;BME280;27205;53.690;19.948;2023-01-28T08:30:18;100936.96;;;0.99;90.18
41467;BME280;27205;53.690;19.948;2023-01-28T08:35:23;100937.87;;;1.15;90.63
41467;BME280;27205;53.690;19.948;2023-01-28T08:40:27;100941.90;;;1.43;91.10
41467;BME280;27205;53.690;19.948;2023-01-28T08:45:31;100938.37;;;1.61;90.40
41467;BME280;27205;53.690;19.948;2023-01-28T08:50:38;100941.95;;;1.70;89.79
41467;BME280;27205;53.690;19.948;2023-01-28T08:55:42;100941.27;;;1.82;89.84
41467;BME280;27205;53.690;19.948;2023-01-28T09:00:47;100929.95;;;1.91;89.34
41467;BME280;27205;53.690;19.948;2023-01-28T09:05:51;100925.98;;;1.99;89.69
41467;BME280;27205;53.690;19.948;2023-01-28T09:10:58;100923.42;;;2.08;88.86
41467;BME280;27205;53.690;19.948;2023-01-28T09:16:05;100926.06;;;2.11;89.06
41467;BME280;27205;53.690;19.948;2023-01-28T09:21:09;100924.48;;;2.31;89.26
41467;BME280;27205;53.690;19.948;2023-01-28T09:26:13;100921.27;;;2.49;89.57
41467;BME280;27205;53.690;19.948;2023-01-28T09:31:16;100922.31;;;2.69;89.38
41467;BME280;27205;53.690;19.948;2023-01-28T09:36:20;100924.52;;;2.83;89.62
41467;BME280;27205;53.690;19.948;2023-01-28T09:46:35;100923.04;;;2.85;88.38
41467;BME280;27205;53.690;19.948;2023-01-28T09:51:47;100915.70;;;2.87;89.17
41467;BME280;27205;53.690;19.948;2023-01-28T09:57:12;100907.62;;;3.08;89.68
41467;BME280;27205;53.690;19.948;2023-01-28T10:07:42;100907.88;;;3.33;89.25
41467;BME280;27205;53.690;19.948;2023-01-28T10:13:16;100915.16;;;3.36;88.69
41467;BME280;27205;53.690;19.948;2023-01-28T10:18:35;100915.14;;;3.11;86.94
41467;BME280;27205;53.690;19.948;2023-01-28T10:23:50;100926.97;;;2.91;87.49
41467;BME280;27205;53.690;19.948;2023-01-28T10:28:58;100923.70;;;2.90;88.11
41467;BME280;27205;53.690;19.948;2023-01-28T10:34:03;100921.81;;;2.98;88.13
41467;BME280;27205;53.690;19.948;2023-01-28T10:39:14;100920.50;;;3.13;88.44
41467;BME280;27205;53.690;19.948;2023-01-28T10:49:30;100909.63;;;3.09;87.48
41467;BME280;27205;53.690;19.948;2023-01-28T10:54:35;100911.42;;;3.08;87.78
41467;BME280;27205;53.690;19.948;2023-01-28T10:59:39;100904.41;;;3.12;88.02
41467;BME280;27205;53.690;19.948;2023-01-28T11:04:43;100900.27;;;3.15;87.73
41467;BME280;27205;53.690;19.948;2023-01-28T11:09:49;100898.57;;;3.27;88.31
41467;BME280;27205;53.690;19.948;2023-01-28T11:14:58;100893.05;;;3.28;86.95
41467;BME280;27205;53.690;19.948;2023-01-28T11:20:15;100893.83;;;3.29;87.57
41467;BME280;27205;53.690;19.948;2023-01-28T11:30:39;100892.63;;;3.19;86.60
41467;BME280;27205;53.690;19.948;2023-01-28T11:36:03;100886.39;;;3.21;86.58
41467;BME280;27205;53.690;19.948;2023-01-28T11:41:14;100882.70;;;3.28;87.05
41467;BME280;27205;53.690;19.948;2023-01-28T12:23:00;100863.54;;;2.74;85.92
41467;BME280;27205;53.690;19.948;2023-01-28T12:33:39;100860.39;;;2.39;85.41
41467;BME280;27205;53.690;19.948;2023-01-28T12:44:09;100840.52;;;2.05;85.33
41467;BME280;27205;53.690;19.948;2023-01-28T12:54:25;100847.11;;;2.04;85.20
41467;BME280;27205;53.690;19.948;2023-01-28T12:59:44;100838.11;;;2.02;85.41
41467;BME280;27205;53.690;19.948;2023-01-28T13:04:59;100837.98;;;1.93;85.35
41467;BME280;27205;53.690;19.948;2023-01-28T13:15:38;100832.95;;;1.62;84.29
41467;BME280;27205;53.690;19.948;2023-01-28T13:20:48;100836.66;;;1.42;83.37
41467;BME280;27205;53.690;19.948;2023-01-28T13:25:54;100829.36;;;1.28;84.14
41467;BME280;27205;53.690;19.948;2023-01-28T13:31:05;100825.55;;;1.12;83.89
41467;BME280;27205;53.690;19.948;2023-01-28T13:41:21;100818.40;;;1.07;84.10
41467;BME280;27205;53.690;19.948;2023-01-28T13:46:27;100817.48;;;1.01;83.23
41467;BME280;27205;53.690;19.948;2023-01-28T13:51:33;100829.61;;;0.93;83.73
41467;BME280;27205;53.690;19.948;2023-01-28T14:13:20;100824.80;;;0.67;83.46
41467;BME280;27205;53.690;19.948;2023-01-28T14:18:39;100828.92;;;0.51;83.08
41467;BME280;27205;53.690;19.948;2023-01-28T14:23:50;100828.50;;;0.41;83.31
41467;BME280;27205;53.690;19.948;2023-01-28T14:29:01;100830.39;;;0.31;83.00
41467;BME280;27205;53.690;19.948;2023-01-28T14:34:30;100828.38;;;0.32;83.11
41467;BME280;27205;53.690;19.948;2023-01-28T14:39:44;100829.70;;;0.21;83.24
41467;BME280;27205;53.690;19.948;2023-01-28T14:55:30;100831.08;;;0.04;82.64
41467;BME280;27205;53.690;19.948;2023-01-28T15:00:36;100823.25;;;0.00;82.62
41467;BME280;27205;53.690;19.948;2023-01-28T15:05:41;100820.92;;;-0.01;82.89
41467;BME280;27205;53.690;19.948;2023-01-28T15:10:45;100806.14;;;0.01;83.03
41467;BME280;27205;53.690;19.948;2023-01-28T15:15:48;100790.75;;;-0.01;82.70
41467;BME280;27205;53.690;19.948;2023-01-28T15:20:54;100795.19;;;-0.06;82.84
41467;BME280;27205;53.690;19.948;2023-01-28T15:25:58;100794.33;;;-0.09;83.20
41467;BME280;27205;53.690;19.948;2023-01-28T15:36:29;100771.46;;;-0.18;83.28
41467;BME280;27205;53.690;19.948;2023-01-28T15:41:38;100789.23;;;-0.20;83.07
41467;BME280;27205;53.690;19.948;2023-01-28T15:46:43;100787.20;;;-0.24;82.71
41467;BME280;27205;53.690;19.948;2023-01-28T15:51:48;100779.89;;;-0.30;82.70
41467;BME280;27205;53.690;19.948;2023-01-28T15:56:55;100780.28;;;-0.40;82.54
41467;BME280;27205;53.690;19.948;2023-01-28T16:07:21;100777.46;;;-0.46;82.11
41467;BME280;27205;53.690;19.948;2023-01-28T16:12:25;100790.75;;;-0.47;82.24
41467;BME280;27205;53.690;19.948;2023-01-28T16:17:40;100789.81;;;-0.47;82.17
41467;BME280;27205;53.690;19.948;2023-01-28T16:22:44;100801.48;;;-0.48;82.24
41467;BME280;27205;53.690;19.948;2023-01-28T16:27:48;100816.76;;;-0.44;82.19
41467;BME280;27205;53.690;19.948;2023-01-28T16:32:53;100814.05;;;-0.42;81.90
41467;BME280;27205;53.690;19.948;2023-01-28T16:38:00;100817.42;;;-0.47;82.15
41467;BME280;27205;53.690;19.948;2023-01-28T16:43:04;100807.67;;;-0.47;81.75
41467;BME280;27205;53.690;19.948;2023-01-28T16:48:07;100813.58;;;-0.35;81.98
41467;BME280;27205;53.690;19.948;2023-01-28T16:53:26;100814.68;;;-0.30;82.03
41467;BME280;27205;53.690;19.948;2023-01-28T16:58:31;100823.39;;;-0.24;82.14
41467;BME280;27205;53.690;19.948;2023-01-28T17:03:34;100830.13;;;-0.24;81.72
41467;BME280;27205;53.690;19.948;2023-01-28T17:08:38;100832.45;;;-0.22;81.85
41467;BME280;27205;53.690;19.948;2023-01-28T17:13:44;100827.13;;;-0.20;82.05
41467;BME280;27205;53.690;19.948;2023-01-28T17:18:52;100821.98;;;-0.13;82.23
41467;BME280;27205;53.690;19.948;2023-01-28T17:23:56;100818.86;;;-0.09;82.28
41467;BME280;27205;53.690;19.948;2023-01-28T17:29:03;100815.47;;;-0.04;82.33
41467;BME280;27205;53.690;19.948;2023-01-28T17:34:07;100802.60;;;0.02;82.24
41467;BME280;27205;53.690;19.948;2023-01-28T17:39:13;100793.18;;;0.06;82.28
41467;BME280;27205;53.690;19.948;2023-01-28T17:44:18;100785.35;;;0.03;82.68
41467;BME280;27205;53.690;19.948;2023-01-28T17:49:21;100784.23;;;-0.02;82.25
41467;BME280;27205;53.690;19.948;2023-01-28T17:54:25;100784.07;;;-0.03;82.31
41467;BME280;27205;53.690;19.948;2023-01-28T17:59:29;100774.11;;;-0.01;82.56
41467;BME280;27205;53.690;19.948;2023-01-28T18:04:39;100778.36;;;-0.02;82.40
41467;BME280;27205;53.690;19.948;2023-01-28T18:09:43;100781.23;;;0.00;82.69
41467;BME280;27205;53.690;19.948;2023-01-28T18:14:49;100792.61;;;0.02;82.68
41467;BME280;27205;53.690;19.948;2023-01-28T18:19:53;100792.18;;;0.07;82.45
41467;BME280;27205;53.690;19.948;2023-01-28T18:24:57;100796.05;;;0.09;82.26
41467;BME280;27205;53.690;19.948;2023-01-28T18:30:00;100793.39;;;0.01;82.16
41467;BME280;27205;53.690;19.948;2023-01-28T18:35:05;100802.10;;;-0.04;82.31
41467;BME280;27205;53.690;19.948;2023-01-28T18:40:08;100794.09;;;-0.12;81.99
41467;BME280;27205;53.690;19.948;2023-01-28T18:45:12;100802.20;;;-0.24;81.98
41467;BME280;27205;53.690;19.948;2023-01-28T18:50:16;100788.85;;;-0.29;81.86
41467;BME280;27205;53.690;19.948;2023-01-28T18:55:20;100791.91;;;-0.26;82.14
41467;BME280;27205;53.690;19.948;2023-01-28T19:00:24;100798.27;;;-0.22;82.08
41467;BME280;27205;53.690;19.948;2023-01-28T19:05:31;100789.91;;;-0.22;81.87
41467;BME280;27205;53.690;19.948;2023-01-28T19:10:36;100778.00;;;-0.24;81.74
41467;BME280;27205;53.690;19.948;2023-01-28T19:15:39;100780.29;;;-0.27;81.43
41467;BME280;27205;53.690;19.948;2023-01-28T19:20:43;100775.86;;;-0.31;81.71
41467;BME280;27205;53.690;19.948;2023-01-28T19:25:46;100783.57;;;-0.34;81.59
41467;BME280;27205;53.690;19.948;2023-01-28T19:30:50;100789.33;;;-0.39;81.41
41467;BME280;27205;53.690;19.948;2023-01-28T19:35:58;100776.23;;;-0.45;81.30
41467;BME280;27205;53.690;19.948;2023-01-28T19:41:06;100789.67;;;-0.47;81.49
41467;BME280;27205;53.690;19.948;2023-01-28T19:46:13;100776.43;;;-0.48;81.50
41467;BME280;27205;53.690;19.948;2023-01-28T19:51:18;100766.21;;;-0.50;81.50
41467;BME280;27205;53.690;19.948;2023-01-28T19:56:23;100756.70;;;-0.51;81.37
41467;BME280;27205;53.690;19.948;2023-01-28T20:01:26;100760.47;;;-0.52;81.58
41467;BME280;27205;53.690;19.948;2023-01-28T20:06:33;100758.48;;;-0.54;81.27
41467;BME280;27205;53.690;19.948;2023-01-28T20:11:37;100767.42;;;-0.54;81.43
41467;BME280;27205;53.690;19.948;2023-01-28T20:16:41;100766.50;;;-0.55;81.30
41467;BME280;27205;53.690;19.948;2023-01-28T20:21:45;100764.02;;;-0.55;81.22
41467;BME280;27205;53.690;19.948;2023-01-28T20:26:49;100764.34;;;-0.61;81.26
41467;BME280;27205;53.690;19.948;2023-01-28T20:31:52;100758.69;;;-0.64;81.39
41467;BME280;27205;53.690;19.948;2023-01-28T20:37:17;100760.38;;;-0.66;81.30
41467;BME280;27205;53.690;19.948;2023-01-28T20:42:21;100755.95;;;-0.68;81.62
41467;BME280;27205;53.690;19.948;2023-01-28T20:47:24;100750.63;;;-0.66;81.56
41467;BME280;27205;53.690;19.948;2023-01-28T20:52:28;100744.69;;;-0.66;81.40
41467;BME280;27205;53.690;19.948;2023-01-28T20:57:32;100740.73;;;-0.67;81.58
41467;BME280;27205;53.690;19.948;2023-01-28T21:08:36;100717.20;;;-0.63;81.40
41467;BME280;27205;53.690;19.948;2023-01-28T21:13:41;100725.66;;;-0.58;81.10
41467;BME280;27205;53.690;19.948;2023-01-28T21:18:45;100722.52;;;-0.55;81.41
41467;BME280;27205;53.690;19.948;2023-01-28T21:23:49;100730.59;;;-0.59;81.17
41467;BME280;27205;53.690;19.948;2023-01-28T21:28:53;100715.24;;;-0.66;80.77
41467;BME280;27205;53.690;19.948;2023-01-28T21:33:58;100721.95;;;-0.67;81.40
41467;BME280;27205;53.690;19.948;2023-01-28T21:39:04;100727.36;;;-0.67;81.01
41467;BME280;27205;53.690;19.948;2023-01-28T21:44:10;100724.80;;;-0.67;80.95
41467;BME280;27205;53.690;19.948;2023-01-28T21:49:13;100723.05;;;-0.65;81.11
41467;BME280;27205;53.690;19.948;2023-01-28T21:54:18;100718.66;;;-0.63;81.33
41467;BME280;27205;53.690;19.948;2023-01-28T21:59:21;100720.44;;;-0.64;81.19
41467;BME280;27205;53.690;19.948;2023-01-28T22:04:33;100708.46;;;-0.64;81.30
41467;BME280;27205;53.690;19.948;2023-01-28T22:09:38;100714.73;;;-0.64;81.34
41467;BME280;27205;53.690;19.948;2023-01-28T22:14:41;100716.11;;;-0.64;81.23
41467;BME280;27205;53.690;19.948;2023-01-28T22:19:46;100719.74;;;-0.63;81.19
41467;BME280;27205;53.690;19.948;2023-01-28T22:24:52;100713.41;;;-0.61;81.04
41467;BME280;27205;53.690;19.948;2023-01-28T22:29:55;100700.83;;;-0.62;81.11
41467;BME280;27205;53.690;19.948;2023-01-28T22:34:59;100704.52;;;-0.64;81.10
41467;BME280;27205;53.690;19.948;2023-01-28T22:40:04;100697.23;;;-0.67;81.30
41467;BME280;27205;53.690;19.948;2023-01-28T22:45:08;100699.34;;;-0.64;81.41
41467;BME280;27205;53.690;19.948;2023-01-28T22:50:12;100690.30;;;-0.63;81.54
41467;BME280;27205;53.690;19.948;2023-01-28T22:55:17;100686.77;;;-0.60;81.43
41467;BME280;27205;53.690;19.948;2023-01-28T23:00:25;100676.81;;;-0.57;81.46
41467;BME280;27205;53.690;19.948;2023-01-28T23:05:30;100666.95;;;-0.53;81.34
41467;BME280;27205;53.690;19.948;2023-01-28T23:10:43;100654.52;;;-0.48;81.70
41467;BME280;27205;53.690;19.948;2023-01-28T23:15:52;100647.92;;;-0.39;81.57
41467;BME280;27205;53.690;19.948;2023-01-28T23:26:44;100618.87;;;-0.36;81.67
41467;BME280;27205;53.690;19.948;2023-01-28T23:31:49;100604.42;;;-0.34;81.69
41467;BME280;27205;53.690;19.948;2023-01-28T23:36:54;100603.73;;;-0.32;81.79
41467;BME280;27205;53.690;19.948;2023-01-28T23:41:58;100616.01;;;-0.35;82.18
41467;BME280;27205;53.690;19.948;2023-01-28T23:47:02;100616.73;;;-0.28;81.93
41467;BME280;27205;53.690;19.948;2023-01-28T23:52:06;100608.92;;;-0.28;82.11
41467;BME280;27205;53.690;19.948;2023-01-28T23:57:09;100598.80;;;-0.24;81.94
